createdAt,value
2018-05-01T00:00:02.060Z,1019.66
2018-05-01T00:01:02.641Z,1019.66
2018-05-01T00:02:03.261Z,1019.68
2018-05-01T00:03:03.842Z,1019.66
2018-05-01T00:04:48.927Z,1019.66
2018-05-01T00:05:49.506Z,1019.69
2018-05-01T00:06:50.131Z,1019.66
2018-05-01T00:07:50.758Z,1019.63
2018-05-01T00:09:35.898Z,1019.60
2018-05-01T00:10:36.475Z,1019.62
2018-05-01T00:11:37.052Z,1019.58
2018-05-01T00:12:37.633Z,1019.60
2018-05-01T00:14:22.717Z,1019.60
2018-05-01T00:15:23.295Z,1019.65
2018-05-01T00:16:23.876Z,1019.65
2018-05-01T00:17:24.451Z,1019.63
2018-05-01T00:19:09.540Z,1019.57
2018-05-01T00:20:10.118Z,1019.68
2018-05-01T00:21:10.696Z,1019.57
2018-05-01T00:22:11.275Z,1019.56
2018-05-01T00:23:56.363Z,1019.55
2018-05-01T00:24:56.991Z,1019.58
2018-05-01T00:25:57.572Z,1019.54
2018-05-01T00:26:58.145Z,1019.48
2018-05-01T00:28:43.291Z,1019.51
2018-05-01T00:29:43.868Z,1019.52
2018-05-01T00:30:44.491Z,1019.54
2018-05-01T00:31:45.068Z,1019.50
2018-05-01T00:33:30.158Z,1019.50
2018-05-01T00:34:30.736Z,1019.50
2018-05-01T00:35:31.314Z,1019.52
2018-05-01T00:36:31.897Z,1019.48
2018-05-01T00:38:17.025Z,1019.50
2018-05-01T00:39:17.604Z,1019.49
2018-05-01T00:40:18.180Z,1019.52
2018-05-01T00:41:18.760Z,1019.45
2018-05-01T00:43:03.899Z,1019.35
2018-05-01T00:44:04.475Z,1019.38
2018-05-01T00:45:05.101Z,1019.42
2018-05-01T00:46:05.679Z,1019.33
2018-05-01T00:47:50.771Z,1019.34
2018-05-01T00:48:51.348Z,1019.33
2018-05-01T00:49:51.933Z,1019.34
2018-05-01T00:50:52.505Z,1019.28
2018-05-01T00:52:37.594Z,1019.26
2018-05-01T00:53:38.221Z,1019.36
2018-05-01T00:54:38.798Z,1019.30
2018-05-01T00:55:39.375Z,1019.25
2018-05-01T00:57:24.465Z,1019.23
2018-05-01T00:58:25.045Z,1019.31
2018-05-01T00:59:25.626Z,1019.25
2018-05-01T01:00:26.251Z,1019.21
2018-05-01T01:02:11.342Z,1019.32
2018-05-01T01:03:11.920Z,1019.20
2018-05-01T01:04:12.498Z,1019.27
2018-05-01T01:05:13.077Z,1019.21
2018-05-01T01:06:58.166Z,1019.23
2018-05-01T01:07:58.794Z,1019.24
2018-05-01T01:08:59.370Z,1019.25
2018-05-01T01:09:59.946Z,1019.21
2018-05-01T01:11:45.086Z,1019.21
2018-05-01T01:12:45.664Z,1019.25
2018-05-01T01:13:46.239Z,1019.19
2018-05-01T01:14:46.815Z,1019.17
2018-05-01T01:16:31.909Z,1019.17
2018-05-01T01:17:32.532Z,1019.19
2018-05-01T01:18:33.108Z,1019.21
2018-05-01T01:19:33.689Z,1019.20
2018-05-01T01:21:18.824Z,1019.18
2018-05-01T01:22:19.444Z,1019.09
2018-05-01T01:23:20.023Z,1019.13
2018-05-01T01:24:20.601Z,1019.20
2018-05-01T01:26:05.691Z,1019.12
2018-05-01T01:27:06.269Z,1019.17
2018-05-01T01:28:06.847Z,1019.17
2018-05-01T01:29:07.426Z,1019.16
2018-05-01T01:30:52.566Z,1019.15
2018-05-01T01:31:53.144Z,1019.15
2018-05-01T01:32:53.771Z,1019.15
2018-05-01T01:33:54.348Z,1019.21
2018-05-01T01:35:39.437Z,1019.18
2018-05-01T01:36:40.016Z,1019.19
2018-05-01T01:37:40.592Z,1019.09
2018-05-01T01:38:41.172Z,1019.07
2018-05-01T01:40:26.309Z,1019.10
2018-05-01T01:41:26.887Z,1019.07
2018-05-01T01:42:27.464Z,1019.09
2018-05-01T01:43:28.041Z,1019.09
2018-05-01T01:45:13.131Z,1019.21
2018-05-01T01:46:13.710Z,1019.08
2018-05-01T01:47:14.286Z,1019.09
2018-05-01T01:48:14.866Z,1019.08
2018-05-01T01:50:00.007Z,1019.06
2018-05-01T01:51:00.626Z,1019.01
2018-05-01T01:52:01.208Z,1019.06
2018-05-01T01:53:01.828Z,1019.03
2018-05-01T01:54:46.963Z,1019.06
2018-05-01T01:55:47.541Z,1019.03
2018-05-01T01:56:48.122Z,1019.03
2018-05-01T01:57:48.698Z,1019.09
2018-05-01T01:59:33.788Z,1019.13
2018-05-01T02:00:34.415Z,1019.04
2018-05-01T02:01:35.042Z,1019.07
2018-05-01T02:02:35.619Z,1018.96
2018-05-01T02:04:20.710Z,1019.00
2018-05-01T02:05:21.289Z,1019.04
2018-05-01T02:06:21.917Z,1018.97
2018-05-01T02:07:22.493Z,1018.97
2018-05-01T02:09:07.632Z,1018.99
2018-05-01T02:10:08.210Z,1019.01
2018-05-01T02:11:08.788Z,1018.94
2018-05-01T02:12:09.366Z,1018.98
2018-05-01T02:13:54.655Z,1018.94
2018-05-01T02:14:55.230Z,1018.99
2018-05-01T02:15:55.807Z,1018.99
2018-05-01T02:16:56.384Z,1018.84
2018-05-01T02:18:41.474Z,1018.94
2018-05-01T02:19:42.105Z,1018.92
2018-05-01T02:20:42.721Z,1018.88
2018-05-01T02:21:43.301Z,1018.86
2018-05-01T02:23:28.387Z,1018.80
2018-05-01T02:24:28.966Z,1018.85
2018-05-01T02:25:29.543Z,1018.88
2018-05-01T02:26:30.122Z,1018.83
2018-05-01T02:28:15.262Z,1018.95
2018-05-01T02:29:15.840Z,1018.86
2018-05-01T02:30:16.420Z,1018.95
2018-05-01T02:31:17.036Z,1018.85
2018-05-01T02:33:02.176Z,1018.82
2018-05-01T02:34:02.753Z,1018.85
2018-05-01T02:35:03.329Z,1018.89
2018-05-01T02:36:03.955Z,1018.78
2018-05-01T02:37:49.046Z,1018.78
2018-05-01T02:38:49.623Z,1018.81
2018-05-01T02:39:50.202Z,1018.94
2018-05-01T02:40:50.779Z,1018.88
2018-05-01T02:42:35.866Z,1018.94
2018-05-01T02:43:36.444Z,1018.87
2018-05-01T02:44:37.019Z,1018.86
2018-05-01T02:45:37.597Z,1018.85
2018-05-01T02:47:22.740Z,1018.89
2018-05-01T02:48:23.357Z,1018.92
2018-05-01T02:49:23.934Z,1018.87
2018-05-01T02:50:24.512Z,1018.85
2018-05-01T02:52:09.610Z,1018.85
2018-05-01T02:53:10.178Z,1018.93
2018-05-01T02:54:10.756Z,1018.86
2018-05-01T02:55:11.536Z,1018.92
2018-05-01T02:56:56.625Z,1018.96
2018-05-01T02:57:57.203Z,1018.92
2018-05-01T02:58:57.782Z,1018.91
2018-05-01T02:59:58.409Z,1018.94
2018-05-01T03:01:48.553Z,1018.95
2018-05-01T03:02:49.179Z,1018.93
2018-05-01T03:03:49.756Z,1018.92
2018-05-01T03:04:50.331Z,1018.94
2018-05-01T03:06:35.422Z,1018.89
2018-05-01T03:07:36.000Z,1018.87
2018-05-01T03:08:36.578Z,1018.88
2018-05-01T03:09:37.210Z,1018.86
2018-05-01T03:11:22.337Z,1018.87
2018-05-01T03:12:22.914Z,1018.82
2018-05-01T03:13:23.491Z,1018.91
2018-05-01T03:14:24.110Z,1018.91
2018-05-01T03:16:09.199Z,1018.90
2018-05-01T03:17:09.776Z,1018.90
2018-05-01T03:18:10.403Z,1018.87
2018-05-01T03:19:10.979Z,1018.86
2018-05-01T03:20:56.069Z,1018.83
2018-05-01T03:21:56.647Z,1018.88
2018-05-01T03:22:57.274Z,1018.87
2018-05-01T03:23:57.850Z,1018.84
2018-05-01T03:25:42.940Z,1018.91
2018-05-01T03:26:43.609Z,1018.88
2018-05-01T03:27:44.187Z,1018.96
2018-05-01T03:28:44.761Z,1018.89
2018-05-01T03:30:29.850Z,1018.89
2018-05-01T03:31:30.427Z,1018.90
2018-05-01T03:32:31.005Z,1018.84
2018-05-01T03:33:31.583Z,1018.91
2018-05-01T03:35:16.671Z,1018.89
2018-05-01T03:36:17.248Z,1018.89
2018-05-01T03:37:17.828Z,1018.90
2018-05-01T03:38:18.603Z,1018.87
2018-05-01T03:40:03.746Z,1018.91
2018-05-01T03:41:04.320Z,1018.87
2018-05-01T03:42:04.896Z,1018.83
2018-05-01T03:43:05.474Z,1018.86
2018-05-01T03:44:50.562Z,1018.84
2018-05-01T03:45:51.191Z,1018.88
2018-05-01T03:46:51.766Z,1018.94
2018-05-01T03:47:52.342Z,1018.96
2018-05-01T03:49:37.432Z,1018.86
2018-05-01T03:50:38.010Z,1018.89
2018-05-01T03:51:38.588Z,1018.92
2018-05-01T03:52:39.165Z,1018.90
2018-05-01T03:54:24.253Z,1018.85
2018-05-01T03:55:24.830Z,1018.85
2018-05-01T03:56:25.408Z,1018.85
2018-05-01T03:57:25.987Z,1018.93
2018-05-01T03:59:11.127Z,1018.93
2018-05-01T04:00:11.704Z,1018.88
2018-05-01T04:01:12.282Z,1018.90
2018-05-01T04:02:12.884Z,1018.93
2018-05-01T04:03:58.048Z,1018.90
2018-05-01T04:04:58.625Z,1018.95
2018-05-01T04:05:59.402Z,1018.87
2018-05-01T04:06:59.981Z,1018.90
2018-05-01T04:08:45.069Z,1018.79
2018-05-01T04:09:45.646Z,1018.87
2018-05-01T04:10:46.224Z,1018.89
2018-05-01T04:11:46.802Z,1018.85
2018-05-01T04:13:31.891Z,1018.85
2018-05-01T04:14:32.467Z,1018.84
2018-05-01T04:15:33.045Z,1018.90
2018-05-01T04:16:33.625Z,1018.87
2018-05-01T04:18:18.723Z,1018.84
2018-05-01T04:19:19.343Z,1018.80
2018-05-01T04:20:19.969Z,1018.83
2018-05-01T04:21:20.549Z,1018.81
2018-05-01T04:23:05.639Z,1018.83
2018-05-01T04:24:06.257Z,1018.83
2018-05-01T04:25:06.885Z,1018.78
2018-05-01T04:26:07.460Z,1018.76
2018-05-01T04:27:52.550Z,1018.80
2018-05-01T04:28:53.127Z,1018.76
2018-05-01T04:29:53.705Z,1018.72
2018-05-01T04:30:54.283Z,1018.75
2018-05-01T04:32:39.372Z,1018.75
2018-05-01T04:33:39.949Z,1018.72
2018-05-01T04:34:40.528Z,1018.83
2018-05-01T04:35:41.105Z,1018.74
2018-05-01T04:37:26.195Z,1018.74
2018-05-01T04:38:26.772Z,1018.72
2018-05-01T04:39:27.398Z,1018.71
2018-05-01T04:40:27.974Z,1018.77
2018-05-01T04:42:13.112Z,1018.74
2018-05-01T04:43:13.695Z,1018.71
2018-05-01T04:44:14.267Z,1018.74
2018-05-01T04:45:14.895Z,1018.76
2018-05-01T04:47:00.037Z,1018.81
2018-05-01T04:48:00.614Z,1018.77
2018-05-01T04:49:01.191Z,1018.75
2018-05-01T04:50:01.769Z,1018.70
2018-05-01T04:51:46.860Z,1018.73
2018-05-01T04:52:47.435Z,1018.82
2018-05-01T04:53:48.013Z,1018.72
2018-05-01T04:54:48.591Z,1018.81
2018-05-01T04:56:33.730Z,1018.78
2018-05-01T04:57:34.307Z,1018.79
2018-05-01T04:58:34.909Z,1018.82
2018-05-01T04:59:35.459Z,1018.70
2018-05-01T05:01:20.649Z,1018.78
2018-05-01T05:02:21.225Z,1018.85
2018-05-01T05:03:21.801Z,1018.87
2018-05-01T05:04:22.377Z,1018.92
2018-05-01T05:06:07.470Z,1018.92
2018-05-01T05:07:08.044Z,1018.87
2018-05-01T05:08:08.621Z,1018.86
2018-05-01T05:09:09.199Z,1018.90
2018-05-01T05:10:54.287Z,1018.92
2018-05-01T05:11:54.866Z,1018.94
2018-05-01T05:12:55.443Z,1018.94
2018-05-01T05:13:56.024Z,1018.91
2018-05-01T05:15:41.109Z,1018.93
2018-05-01T05:16:41.736Z,1018.98
2018-05-01T05:17:42.362Z,1018.89
2018-05-01T05:18:42.940Z,1018.98
2018-05-01T05:20:28.033Z,1018.99
2018-05-01T05:21:28.657Z,1019.04
2018-05-01T05:22:29.234Z,1019.02
2018-05-01T05:23:29.811Z,1019.01
2018-05-01T05:25:14.899Z,1019.08
2018-05-01T05:26:15.477Z,1018.99
2018-05-01T05:27:16.054Z,1019.08
2018-05-01T05:28:16.632Z,1019.08
2018-05-01T05:30:01.722Z,1019.08
2018-05-01T05:31:02.397Z,1019.06
2018-05-01T05:32:03.023Z,1019.15
2018-05-01T05:33:03.599Z,1019.12
2018-05-01T05:34:48.689Z,1019.19
2018-05-01T05:35:49.269Z,1019.06
2018-05-01T05:36:49.842Z,1019.09
2018-05-01T05:37:50.521Z,1019.18
2018-05-01T05:39:35.612Z,1019.16
2018-05-01T05:40:36.188Z,1019.17
2018-05-01T05:41:36.764Z,1019.16
2018-05-01T05:42:37.342Z,1019.24
2018-05-01T05:44:22.430Z,1019.24
2018-05-01T05:45:23.008Z,1019.23
2018-05-01T05:46:23.636Z,1019.28
2018-05-01T05:47:24.212Z,1019.29
2018-05-01T05:49:09.352Z,1019.31
2018-05-01T05:50:09.929Z,1019.32
2018-05-01T05:51:10.504Z,1019.30
2018-05-01T05:52:11.080Z,1019.34
2018-05-01T05:53:56.169Z,1019.27
2018-05-01T05:54:56.747Z,1019.39
2018-05-01T05:55:57.323Z,1019.34
2018-05-01T05:56:57.903Z,1019.37
2018-05-01T05:58:42.992Z,1019.38
2018-05-01T05:59:43.619Z,1019.37
2018-05-01T06:00:44.194Z,1019.43
2018-05-01T06:01:44.771Z,1019.43
2018-05-01T06:03:29.861Z,1019.35
2018-05-01T06:04:30.438Z,1019.36
2018-05-01T06:05:31.064Z,1019.36
2018-05-01T06:06:31.640Z,1019.37
2018-05-01T06:08:16.778Z,1019.42
2018-05-01T06:09:17.355Z,1019.51
2018-05-01T06:10:17.931Z,1019.40
2018-05-01T06:11:18.506Z,1019.50
2018-05-01T06:13:03.596Z,1019.49
2018-05-01T06:14:04.222Z,1019.52
2018-05-01T06:15:04.797Z,1019.55
2018-05-01T06:16:05.374Z,1019.50
2018-05-01T06:17:50.513Z,1019.55
2018-05-01T06:18:51.091Z,1019.52
2018-05-01T06:19:51.670Z,1019.55
2018-05-01T06:20:52.246Z,1019.57
2018-05-01T06:22:37.335Z,1019.49
2018-05-01T06:23:37.913Z,1019.56
2018-05-01T06:24:38.489Z,1019.64
2018-05-01T06:25:39.066Z,1019.52
2018-05-01T06:27:24.154Z,1019.58
2018-05-01T06:28:24.731Z,1019.54
2018-05-01T06:29:25.366Z,1019.57
2018-05-01T06:30:26.029Z,1019.57
2018-05-01T06:32:11.119Z,1019.53
2018-05-01T06:33:11.696Z,1019.67
2018-05-01T06:34:12.322Z,1019.58
2018-05-01T06:35:12.898Z,1019.61
2018-05-01T06:36:58.069Z,1019.63
2018-05-01T06:37:58.614Z,1019.61
2018-05-01T06:38:59.188Z,1019.72
2018-05-01T06:39:59.765Z,1019.66
2018-05-01T06:41:44.853Z,1019.63
2018-05-01T06:42:45.431Z,1019.69
2018-05-01T06:43:46.007Z,1019.68
2018-05-01T06:44:46.585Z,1019.72
2018-05-01T06:46:31.674Z,1019.72
2018-05-01T06:47:32.251Z,1019.69
2018-05-01T06:48:32.877Z,1019.74
2018-05-01T06:49:33.453Z,1019.72
2018-05-01T06:51:18.593Z,1019.75
2018-05-01T06:52:19.170Z,1019.72
2018-05-01T06:53:19.798Z,1019.72
2018-05-01T06:54:20.373Z,1019.75
2018-05-01T06:56:05.463Z,1019.83
2018-05-01T06:57:06.039Z,1019.85
2018-05-01T06:58:06.617Z,1019.85
2018-05-01T06:59:07.195Z,1019.88
2018-05-01T07:00:52.283Z,1019.89
2018-05-01T07:01:52.860Z,1019.95
2018-05-01T07:02:53.437Z,1019.92
2018-05-01T07:03:54.016Z,1019.89
2018-05-01T07:05:39.105Z,1019.90
2018-05-01T07:06:39.681Z,1019.87
2018-05-01T07:07:40.258Z,1019.95
2018-05-01T07:08:40.886Z,1019.87
2018-05-01T07:10:26.025Z,1019.89
2018-05-01T07:11:26.603Z,1019.92
2018-05-01T07:12:27.180Z,1019.93
2018-05-01T07:13:27.758Z,1019.99
2018-05-01T07:15:12.847Z,1019.96
2018-05-01T07:16:13.428Z,1019.99
2018-05-01T07:17:14.052Z,1019.99
2018-05-01T07:18:14.627Z,1020.00
2018-05-01T07:19:59.721Z,1019.99
2018-05-01T07:21:00.293Z,1020.09
2018-05-01T07:22:00.868Z,1019.95
2018-05-01T07:23:01.446Z,1020.02
2018-05-01T07:24:46.534Z,1020.01
2018-05-01T07:25:47.165Z,1019.98
2018-05-01T07:26:47.787Z,1019.98
2018-05-01T07:27:48.364Z,1020.05
2018-05-01T07:29:33.455Z,1020.01
2018-05-01T07:30:34.033Z,1020.06
2018-05-01T07:31:34.608Z,1020.06
2018-05-01T07:32:35.240Z,1020.05
2018-05-01T07:34:20.324Z,1020.08
2018-05-01T07:35:20.903Z,1020.08
2018-05-01T07:36:21.480Z,1020.09
2018-05-01T07:37:22.058Z,1020.12
2018-05-01T07:39:07.147Z,1020.14
2018-05-01T07:40:07.725Z,1020.19
2018-05-01T07:41:08.305Z,1020.22
2018-05-01T07:42:08.922Z,1020.12
2018-05-01T07:43:54.062Z,1020.20
2018-05-01T07:44:54.688Z,1020.24
2018-05-01T07:45:55.263Z,1020.17
2018-05-01T07:46:55.840Z,1020.17
2018-05-01T07:48:40.931Z,1020.23
2018-05-01T07:49:41.508Z,1020.21
2018-05-01T07:50:42.084Z,1020.19
2018-05-01T07:51:42.662Z,1020.26
2018-05-01T07:53:27.801Z,1020.28
2018-05-01T07:54:28.379Z,1020.27
2018-05-01T07:55:28.955Z,1020.25
2018-05-01T07:56:29.533Z,1020.34
2018-05-01T07:58:14.620Z,1020.31
2018-05-01T07:59:15.201Z,1020.33
2018-05-01T08:00:15.790Z,1020.33
2018-05-01T08:01:16.354Z,1020.34
2018-05-01T08:03:01.495Z,1020.40
2018-05-01T08:04:02.071Z,1020.40
2018-05-01T08:05:02.646Z,1020.37
2018-05-01T08:06:03.226Z,1020.40
2018-05-01T08:07:48.313Z,1020.35
2018-05-01T08:08:48.894Z,1020.35
2018-05-01T08:09:49.511Z,1020.35
2018-05-01T08:10:50.088Z,1020.35
2018-05-01T08:12:35.228Z,1020.35
2018-05-01T08:13:35.855Z,1020.38
2018-05-01T08:14:36.431Z,1020.35
2018-05-01T08:15:37.007Z,1020.37
2018-05-01T08:17:22.095Z,1020.35
2018-05-01T08:18:22.672Z,1020.35
2018-05-01T08:19:23.449Z,1020.38
2018-05-01T08:20:24.024Z,1020.47
2018-05-01T08:22:09.113Z,1020.48
2018-05-01T08:23:09.690Z,1020.42
2018-05-01T08:24:10.302Z,1020.44
2018-05-01T08:25:10.895Z,1020.44
2018-05-01T08:26:55.983Z,1020.47
2018-05-01T08:27:56.561Z,1020.55
2018-05-01T08:28:57.138Z,1020.47
2018-05-01T08:29:57.715Z,1020.42
2018-05-01T08:31:42.861Z,1020.41
2018-05-01T08:32:43.429Z,1020.35
2018-05-01T08:33:44.056Z,1020.48
2018-05-01T08:34:44.685Z,1020.47
2018-05-01T08:36:29.776Z,1020.51
2018-05-01T08:37:30.395Z,1020.42
2018-05-01T08:38:30.980Z,1020.45
2018-05-01T08:39:31.550Z,1020.42
2018-05-01T08:41:16.638Z,1020.49
2018-05-01T08:42:17.219Z,1020.46
2018-05-01T08:43:17.836Z,1020.41
2018-05-01T08:44:18.412Z,1020.55
2018-05-01T08:46:03.500Z,1020.50
2018-05-01T08:47:04.129Z,1020.48
2018-05-01T08:48:04.703Z,1020.57
2018-05-01T08:49:05.279Z,1020.57
2018-05-01T08:50:50.370Z,1020.56
2018-05-01T08:51:50.997Z,1020.57
2018-05-01T08:52:51.574Z,1020.53
2018-05-01T08:53:52.152Z,1020.53
2018-05-01T08:55:37.244Z,1020.53
2018-05-01T08:56:37.872Z,1020.51
2018-05-01T08:57:38.451Z,1020.58
2018-05-01T08:58:39.031Z,1020.56
2018-05-01T09:00:24.124Z,1020.60
2018-05-01T09:01:24.705Z,1020.55
2018-05-01T09:02:25.286Z,1020.49
2018-05-01T09:03:25.867Z,1020.53
2018-05-01T09:05:11.011Z,1020.55
2018-05-01T09:06:11.594Z,1020.49
2018-05-01T09:07:12.174Z,1020.57
2018-05-01T09:08:12.756Z,1020.55
2018-05-01T09:09:57.851Z,1020.49
2018-05-01T09:10:58.432Z,1020.52
2018-05-01T09:11:59.063Z,1020.56
2018-05-01T09:12:59.694Z,1020.50
2018-05-01T09:14:44.789Z,1020.53
2018-05-01T09:15:45.371Z,1020.53
2018-05-01T09:16:45.959Z,1020.56
2018-05-01T09:17:46.635Z,1020.56
2018-05-01T09:19:31.628Z,1020.63
2018-05-01T09:20:32.209Z,1020.64
2018-05-01T09:21:32.841Z,1020.63
2018-05-01T09:22:33.421Z,1020.65
2018-05-01T09:24:18.516Z,1020.71
2018-05-01T09:25:19.099Z,1020.73
2018-05-01T09:26:19.679Z,1020.67
2018-05-01T09:27:20.314Z,1020.74
2018-05-01T09:29:05.449Z,1020.73
2018-05-01T09:30:06.032Z,1020.77
2018-05-01T09:31:06.613Z,1020.73
2018-05-01T09:32:07.194Z,1020.82
2018-05-01T09:33:52.442Z,1020.73
2018-05-01T09:34:53.023Z,1020.79
2018-05-01T09:35:53.611Z,1020.78
2018-05-01T09:36:54.241Z,1020.79
2018-05-01T09:38:39.335Z,1020.77
2018-05-01T09:39:39.915Z,1020.81
2018-05-01T09:40:40.549Z,1020.79
2018-05-01T09:41:41.127Z,1020.83
2018-05-01T09:43:26.220Z,1020.79
2018-05-01T09:44:26.853Z,1020.76
2018-05-01T09:45:27.437Z,1020.84
2018-05-01T09:46:28.069Z,1020.74
2018-05-01T09:48:13.165Z,1020.87
2018-05-01T09:49:13.747Z,1020.79
2018-05-01T09:50:14.327Z,1020.85
2018-05-01T09:51:14.911Z,1020.83
2018-05-01T09:53:00.006Z,1020.89
2018-05-01T09:54:00.589Z,1020.93
2018-05-01T09:55:01.171Z,1020.86
2018-05-01T09:56:01.804Z,1020.78
2018-05-01T09:57:46.948Z,1020.79
2018-05-01T09:58:47.528Z,1020.75
2018-05-01T09:59:48.110Z,1020.80
2018-05-01T10:00:48.691Z,1020.76
2018-05-01T10:02:33.835Z,1020.76
2018-05-01T10:03:34.422Z,1020.76
2018-05-01T10:04:34.999Z,1020.82
2018-05-01T10:05:35.582Z,1020.82
2018-05-01T10:07:20.678Z,1020.75
2018-05-01T10:08:21.262Z,1020.81
2018-05-01T10:09:21.842Z,1020.83
2018-05-01T10:10:22.469Z,1020.78
2018-05-01T10:12:07.566Z,1020.79
2018-05-01T10:13:08.147Z,1020.79
2018-05-01T10:14:08.779Z,1020.79
2018-05-01T10:15:09.361Z,1020.83
2018-05-01T10:16:54.506Z,1020.81
2018-05-01T10:17:55.088Z,1020.78
2018-05-01T10:18:55.668Z,1020.83
2018-05-01T10:19:56.250Z,1020.84
2018-05-01T10:21:41.351Z,1020.85
2018-05-01T10:22:41.930Z,1020.86
2018-05-01T10:23:42.513Z,1020.83
2018-05-01T10:24:43.097Z,1020.84
2018-05-01T10:26:28.241Z,1020.76
2018-05-01T10:27:28.823Z,1020.83
2018-05-01T10:28:29.405Z,1020.83
2018-05-01T10:29:29.993Z,1020.79
2018-05-01T10:31:15.084Z,1020.81
2018-05-01T10:32:15.668Z,1020.80
2018-05-01T10:33:16.251Z,1020.77
2018-05-01T10:34:16.884Z,1020.83
2018-05-01T10:36:02.279Z,1020.84
2018-05-01T10:37:02.862Z,1020.80
2018-05-01T10:39:05.079Z,1020.95
2018-05-01T10:40:53.992Z,1020.86
2018-05-01T10:41:54.565Z,1020.82
2018-05-01T10:42:55.139Z,1020.78
2018-05-01T10:43:55.715Z,1020.81
2018-05-01T10:45:40.678Z,1020.83
2018-05-01T10:46:41.268Z,1020.90
2018-05-01T10:47:41.899Z,1020.85
2018-05-01T10:48:42.516Z,1020.78
2018-05-01T10:50:27.443Z,1020.80
2018-05-01T10:51:28.027Z,1020.78
2018-05-01T10:52:28.644Z,1020.76
2018-05-01T10:53:29.276Z,1020.77
2018-05-01T10:55:14.198Z,1020.76
2018-05-01T10:56:14.779Z,1020.81
2018-05-01T10:57:15.360Z,1020.81
2018-05-01T10:58:15.942Z,1020.75
2018-05-01T11:00:01.079Z,1020.84
2018-05-01T11:01:01.694Z,1020.80
2018-05-01T11:02:02.293Z,1020.83
2018-05-01T11:03:02.858Z,1020.84
2018-05-01T11:04:47.783Z,1020.86
2018-05-01T11:05:48.365Z,1020.89
2018-05-01T11:06:49.005Z,1020.82
2018-05-01T11:07:49.642Z,1020.76
2018-05-01T11:09:34.796Z,1020.89
2018-05-01T11:10:35.390Z,1020.79
2018-05-01T11:11:36.024Z,1020.86
2018-05-01T11:12:36.605Z,1020.87
2018-05-01T11:14:21.760Z,1020.87
2018-05-01T11:15:22.348Z,1020.89
2018-05-01T11:16:22.988Z,1020.92
2018-05-01T11:17:23.638Z,1020.96
2018-05-01T11:19:08.682Z,1020.84
2018-05-01T11:20:09.276Z,1020.96
2018-05-01T11:21:09.860Z,1020.94
2018-05-01T11:22:10.453Z,1020.88
2018-05-01T11:23:55.607Z,1020.86
2018-05-01T11:24:56.196Z,1020.85
2018-05-01T11:25:56.874Z,1020.80
2018-05-01T11:26:57.378Z,1020.85
2018-05-01T11:28:42.934Z,1020.88
2018-05-01T11:29:43.575Z,1020.86
2018-05-01T11:30:44.367Z,1020.94
2018-05-01T11:31:45.013Z,1020.84
2018-05-01T11:33:30.135Z,1020.86
2018-05-01T11:34:30.809Z,1020.85
2018-05-01T11:35:31.401Z,1020.79
2018-05-01T11:36:31.996Z,1020.81
2018-05-01T11:38:17.140Z,1020.83
2018-05-01T11:39:17.736Z,1020.81
2018-05-01T11:40:18.323Z,1020.81
2018-05-01T11:41:18.917Z,1020.92
2018-05-01T11:43:04.065Z,1020.79
2018-05-01T11:44:04.660Z,1020.91
2018-05-01T11:45:05.341Z,1020.86
2018-05-01T11:46:05.841Z,1020.88
2018-05-01T11:47:50.998Z,1020.81
2018-05-01T11:48:51.593Z,1020.82
2018-05-01T11:49:52.385Z,1020.83
2018-05-01T11:50:52.978Z,1020.78
2018-05-01T11:52:38.085Z,1020.86
2018-05-01T11:53:38.682Z,1020.82
2018-05-01T11:54:39.274Z,1020.84
2018-05-01T11:55:39.865Z,1020.88
2018-05-01T11:57:25.025Z,1020.87
2018-05-01T11:58:25.618Z,1020.88
2018-05-01T11:59:26.215Z,1020.91
2018-05-01T12:00:26.806Z,1020.90
2018-05-01T12:02:11.965Z,1020.91
2018-05-01T12:03:12.558Z,1020.86
2018-05-01T12:04:13.154Z,1020.90
2018-05-01T12:05:13.747Z,1020.82
2018-05-01T12:06:58.857Z,1020.85
2018-05-01T12:07:59.496Z,1020.89
2018-05-01T12:09:00.081Z,1020.91
2018-05-01T12:10:00.677Z,1020.92
2018-05-01T12:11:45.829Z,1020.80
2018-05-01T12:12:46.426Z,1020.81
2018-05-01T12:13:47.023Z,1020.80
2018-05-01T12:14:48.809Z,1020.86
2018-05-01T12:16:33.920Z,1020.81
2018-05-01T12:17:34.517Z,1020.91
2018-05-01T12:18:35.120Z,1020.79
2018-05-01T12:19:35.748Z,1020.80
2018-05-01T12:21:20.910Z,1020.80
2018-05-01T12:22:21.506Z,1020.84
2018-05-01T12:23:22.103Z,1020.81
2018-05-01T12:24:22.697Z,1020.82
2018-05-01T12:26:07.858Z,1020.78
2018-05-01T12:27:08.455Z,1020.85
2018-05-01T12:28:09.049Z,1020.84
2018-05-01T12:29:09.648Z,1020.78
2018-05-01T12:30:54.758Z,1020.80
2018-05-01T12:31:55.355Z,1020.83
2018-05-01T12:32:55.950Z,1020.87
2018-05-01T12:33:56.546Z,1020.82
2018-05-01T12:35:41.707Z,1020.93
2018-05-01T12:36:42.392Z,1020.81
2018-05-01T12:37:42.898Z,1020.80
2018-05-01T12:38:43.494Z,1020.86
2018-05-01T12:40:28.655Z,1020.78
2018-05-01T12:41:29.252Z,1020.80
2018-05-01T12:42:29.886Z,1020.81
2018-05-01T12:43:30.444Z,1020.87
2018-05-01T12:45:15.605Z,1020.78
2018-05-01T12:46:16.200Z,1020.85
2018-05-01T12:47:16.797Z,1020.90
2018-05-01T12:48:17.423Z,1020.77
2018-05-01T12:50:02.596Z,1020.84
2018-05-01T12:51:03.187Z,1020.90
2018-05-01T12:52:03.785Z,1020.84
2018-05-01T12:53:04.422Z,1020.86
2018-05-01T12:54:49.585Z,1020.86
2018-05-01T12:55:50.180Z,1020.81
2018-05-01T12:56:50.778Z,1020.82
2018-05-01T12:57:51.375Z,1020.91
2018-05-01T12:59:36.489Z,1020.90
2018-05-01T13:00:37.087Z,1020.87
2018-05-01T13:01:37.684Z,1020.83
2018-05-01T13:02:38.279Z,1020.83
2018-05-01T13:04:23.395Z,1020.94
2018-05-01T13:05:23.988Z,1020.90
2018-05-01T13:07:26.223Z,1020.90
2018-05-01T13:09:11.476Z,1020.86
2018-05-01T13:10:12.072Z,1020.92
2018-05-01T13:11:12.669Z,1020.93
2018-05-01T13:12:13.266Z,1020.85
2018-05-01T13:13:58.380Z,1020.84
2018-05-01T13:14:58.978Z,1020.85
2018-05-01T13:15:59.572Z,1020.83
2018-05-01T13:17:00.174Z,1020.87
2018-05-01T13:18:45.283Z,1020.89
2018-05-01T13:19:45.880Z,1020.92
2018-05-01T13:20:46.478Z,1020.95
2018-05-01T13:21:47.278Z,1020.99
2018-05-01T13:23:32.388Z,1020.94
2018-05-01T13:24:32.986Z,1020.96
2018-05-01T13:25:33.633Z,1020.99
2018-05-01T13:26:34.228Z,1020.95
2018-05-01T13:28:19.390Z,1020.86
2018-05-01T13:29:19.988Z,1020.87
2018-05-01T13:30:20.583Z,1020.87
2018-05-01T13:31:21.185Z,1020.94
2018-05-01T13:33:06.337Z,1020.86
2018-05-01T13:34:06.932Z,1020.83
2018-05-01T13:35:07.527Z,1020.87
2018-05-01T13:36:08.124Z,1020.87
2018-05-01T13:37:53.276Z,1020.88
2018-05-01T13:38:53.886Z,1020.84
2018-05-01T13:39:54.481Z,1020.80
2018-05-01T13:40:55.078Z,1020.77
2018-05-01T13:42:40.196Z,1020.81
2018-05-01T13:43:40.782Z,1020.76
2018-05-01T13:44:41.382Z,1020.86
2018-05-01T13:45:41.971Z,1020.90
2018-05-01T13:47:27.132Z,1020.88
2018-05-01T13:48:27.728Z,1020.84
2018-05-01T13:49:28.324Z,1020.84
2018-05-01T13:50:28.949Z,1020.82
2018-05-01T13:52:14.084Z,1020.79
2018-05-01T13:53:14.677Z,1020.87
2018-05-01T13:54:15.302Z,1020.84
2018-05-01T13:55:15.935Z,1020.80
2018-05-01T13:57:00.980Z,1020.79
2018-05-01T13:58:01.593Z,1020.83
2018-05-01T13:59:02.288Z,1020.79
2018-05-01T14:00:02.859Z,1020.73
2018-05-01T14:01:47.969Z,1020.72
2018-05-01T14:02:48.569Z,1020.77
2018-05-01T14:03:49.311Z,1020.73
2018-05-01T14:04:49.907Z,1020.77
2018-05-01T14:06:35.015Z,1020.70
2018-05-01T14:09:38.837Z,1020.74
2018-05-01T14:11:23.947Z,1020.73
2018-05-01T14:14:27.759Z,1020.65
2018-05-01T14:16:12.943Z,1020.73
2018-05-01T14:17:13.530Z,1020.68
2018-05-01T14:18:14.118Z,1020.66
2018-05-01T14:19:14.767Z,1020.69
2018-05-01T14:20:59.735Z,1020.71
2018-05-01T14:22:00.324Z,1020.56
2018-05-01T14:23:00.916Z,1020.57
2018-05-01T14:24:01.552Z,1020.62
2018-05-01T14:25:46.939Z,1020.60
2018-05-01T14:26:47.427Z,1020.62
2018-05-01T14:29:03.658Z,1020.69
2018-05-01T14:30:04.245Z,1020.61
2018-05-01T14:31:49.186Z,1020.57
2018-05-01T14:32:49.775Z,1020.55
2018-05-01T14:33:50.362Z,1020.55
2018-05-01T14:34:51.001Z,1020.61